sensor_id;sensor_type;location;lat;lon;timestamp;P1;durP1;ratioP1;P2;durP2;ratioP2
23376;SDS011;14353;46.070;13.222;2023-10-09T00:01:42;3.63;;;3.17;;
23376;SDS011;14353;46.070;13.222;2023-10-09T00:04:10;3.90;;;3.50;;
23376;SDS011;14353;46.070;13.222;2023-10-09T00:06:36;3.83;;;3.33;;
23376;SDS011;14353;46.070;13.222;2023-10-09T00:09:06;4.07;;;3.67;;
23376;SDS011;14353;46.070;13.222;2023-10-09T00:11:55;3.92;;;3.22;;
23376;SDS011;14353;46.070;13.222;2023-10-09T00:14:23;4.13;;;3.72;;
23376;SDS011;14353;46.070;13.222;2023-10-09T00:16:50;3.90;;;3.58;;
23376;SDS011;14353;46.070;13.222;2023-10-09T00:19:21;4.10;;;3.70;;
23376;SDS011;14353;46.070;13.222;2023-10-09T00:21:58;4.60;;;3.47;;
23376;SDS011;14353;46.070;13.222;2023-10-09T00:24:31;3.90;;;3.50;;
23376;SDS011;14353;46.070;13.222;2023-10-09T00:26:57;4.30;;;3.80;;
23376;SDS011;14353;46.070;13.222;2023-10-09T00:29:44;3.97;;;3.58;;
23376;SDS011;14353;46.070;13.222;2023-10-09T00:32:11;4.28;;;3.55;;
23376;SDS011;14353;46.070;13.222;2023-10-09T00:34:57;3.80;;;3.50;;
23376;SDS011;14353;46.070;13.222;2023-10-09T00:37:38;4.30;;;3.75;;
23376;SDS011;14353;46.070;13.222;2023-10-09T00:40:05;5.32;;;3.78;;
23376;SDS011;14353;46.070;13.222;2023-10-09T00:42:48;3.88;;;3.47;;
23376;SDS011;14353;46.070;13.222;2023-10-09T00:45:14;4.10;;;3.63;;
23376;SDS011;14353;46.070;13.222;2023-10-09T00:47:50;3.80;;;3.22;;
23376;SDS011;14353;46.070;13.222;2023-10-09T00:50:23;4.40;;;3.60;;
23376;SDS011;14353;46.070;13.222;2023-10-09T00:52:51;4.10;;;3.70;;
23376;SDS011;14353;46.070;13.222;2023-10-09T00:55:26;4.07;;;3.60;;
23376;SDS011;14353;46.070;13.222;2023-10-09T00:58:03;4.32;;;3.75;;
23376;SDS011;14353;46.070;13.222;2023-10-09T01:00:40;4.20;;;3.65;;
23376;SDS011;14353;46.070;13.222;2023-10-09T01:03:10;3.60;;;3.30;;
23376;SDS011;14353;46.070;13.222;2023-10-09T01:05:50;4.90;;;3.78;;
23376;SDS011;14353;46.070;13.222;2023-10-09T01:08:26;4.00;;;3.53;;
23376;SDS011;14353;46.070;13.222;2023-10-09T01:13:45;4.53;;;3.63;;
23376;SDS011;14353;46.070;13.222;2023-10-09T01:16:18;4.65;;;3.58;;
23376;SDS011;14353;46.070;13.222;2023-10-09T01:18:51;4.03;;;3.30;;
23376;SDS011;14353;46.070;13.222;2023-10-09T01:21:18;3.97;;;3.50;;
23376;SDS011;14353;46.070;13.222;2023-10-09T01:26:43;4.00;;;3.50;;
23376;SDS011;14353;46.070;13.222;2023-10-09T01:29:19;4.15;;;3.72;;
23376;SDS011;14353;46.070;13.222;2023-10-09T01:31:52;4.57;;;3.50;;
23376;SDS011;14353;46.070;13.222;2023-10-09T01:34:29;4.43;;;3.78;;
23376;SDS011;14353;46.070;13.222;2023-10-09T01:37:14;4.57;;;3.58;;
23376;SDS011;14353;46.070;13.222;2023-10-09T01:42:17;3.90;;;3.50;;
23376;SDS011;14353;46.070;13.222;2023-10-09T01:44:55;3.88;;;3.50;;
23376;SDS011;14353;46.070;13.222;2023-10-09T01:47:23;4.18;;;3.30;;
23376;SDS011;14353;46.070;13.222;2023-10-09T01:49:51;3.78;;;3.42;;
23376;SDS011;14353;46.070;13.222;2023-10-09T01:52:18;3.80;;;3.33;;
23376;SDS011;14353;46.070;13.222;2023-10-09T01:54:46;3.72;;;3.28;;
23376;SDS011;14353;46.070;13.222;2023-10-09T01:57:16;4.10;;;3.70;;
23376;SDS011;14353;46.070;13.222;2023-10-09T02:02:15;4.32;;;3.50;;
23376;SDS011;14353;46.070;13.222;2023-10-09T02:04:55;4.32;;;3.67;;
23376;SDS011;14353;46.070;13.222;2023-10-09T02:07:34;4.32;;;3.58;;
23376;SDS011;14353;46.070;13.222;2023-10-09T02:10:09;3.50;;;3.20;;
23376;SDS011;14353;46.070;13.222;2023-10-09T02:12:47;4.25;;;3.58;;
23376;SDS011;14353;46.070;13.222;2023-10-09T02:15:34;4.25;;;3.53;;
23376;SDS011;14353;46.070;13.222;2023-10-09T02:18:10;4.40;;;3.35;;
23376;SDS011;14353;46.070;13.222;2023-10-09T02:20:50;3.60;;;3.30;;
23376;SDS011;14353;46.070;13.222;2023-10-09T02:23:24;3.42;;;3.13;;
23376;SDS011;14353;46.070;13.222;2023-10-09T02:25:58;3.70;;;3.30;;
23376;SDS011;14353;46.070;13.222;2023-10-09T02:28:27;4.13;;;3.40;;
23376;SDS011;14353;46.070;13.222;2023-10-09T02:30:57;3.55;;;3.20;;
23376;SDS011;14353;46.070;13.222;2023-10-09T02:33:27;5.30;;;3.83;;
23376;SDS011;14353;46.070;13.222;2023-10-09T02:35:54;4.88;;;3.65;;
23376;SDS011;14353;46.070;13.222;2023-10-09T02:38:20;4.25;;;3.53;;
23376;SDS011;14353;46.070;13.222;2023-10-09T02:40:51;3.75;;;3.33;;
23376;SDS011;14353;46.070;13.222;2023-10-09T02:43:32;3.67;;;3.35;;
23376;SDS011;14353;46.070;13.222;2023-10-09T02:46:20;4.25;;;3.85;;
23376;SDS011;14353;46.070;13.222;2023-10-09T02:48:53;4.32;;;3.38;;
23376;SDS011;14353;46.070;13.222;2023-10-09T02:51:23;3.70;;;3.40;;
23376;SDS011;14353;46.070;13.222;2023-10-09T02:53:55;3.60;;;3.30;;
23376;SDS011;14353;46.070;13.222;2023-10-09T02:56:23;4.20;;;3.65;;
23376;SDS011;14353;46.070;13.222;2023-10-09T02:58:55;3.78;;;3.40;;
23376;SDS011;14353;46.070;13.222;2023-10-09T03:01:30;3.63;;;3.20;;
23376;SDS011;14353;46.070;13.222;2023-10-09T03:03:56;5.70;;;3.42;;
23376;SDS011;14353;46.070;13.222;2023-10-09T03:06:24;4.00;;;3.60;;
23376;SDS011;14353;46.070;13.222;2023-10-09T03:08:53;3.90;;;3.53;;
23376;SDS011;14353;46.070;13.222;2023-10-09T03:11:20;3.80;;;3.50;;
23376;SDS011;14353;46.070;13.222;2023-10-09T03:13:45;4.63;;;3.63;;
23376;SDS011;14353;46.070;13.222;2023-10-09T03:16:12;4.35;;;3.45;;
23376;SDS011;14353;46.070;13.222;2023-10-09T03:18:44;4.68;;;3.40;;
23376;SDS011;14353;46.070;13.222;2023-10-09T03:21:19;4.13;;;3.50;;
23376;SDS011;14353;46.070;13.222;2023-10-09T03:23:46;4.57;;;3.30;;
23376;SDS011;14353;46.070;13.222;2023-10-09T03:26:16;3.85;;;3.40;;
23376;SDS011;14353;46.070;13.222;2023-10-09T03:28:46;3.50;;;3.20;;
23376;SDS011;14353;46.070;13.222;2023-10-09T03:31:12;4.85;;;3.45;;
23376;SDS011;14353;46.070;13.222;2023-10-09T03:33:38;4.07;;;3.20;;
23376;SDS011;14353;46.070;13.222;2023-10-09T03:36:04;3.78;;;3.20;;
23376;SDS011;14353;46.070;13.222;2023-10-09T03:38:37;3.90;;;3.50;;
23376;SDS011;14353;46.070;13.222;2023-10-09T03:41:04;4.22;;;3.50;;
23376;SDS011;14353;46.070;13.222;2023-10-09T03:43:34;5.10;;;3.10;;
23376;SDS011;14353;46.070;13.222;2023-10-09T03:46:07;4.05;;;3.05;;
23376;SDS011;14353;46.070;13.222;2023-10-09T03:48:48;4.38;;;3.20;;
23376;SDS011;14353;46.070;13.222;2023-10-09T03:51:15;4.45;;;3.72;;
23376;SDS011;14353;46.070;13.222;2023-10-09T03:53:47;4.55;;;3.55;;
23376;SDS011;14353;46.070;13.222;2023-10-09T03:56:13;3.63;;;3.00;;
23376;SDS011;14353;46.070;13.222;2023-10-09T03:58:41;3.70;;;3.30;;
23376;SDS011;14353;46.070;13.222;2023-10-09T04:01:10;3.53;;;3.20;;
23376;SDS011;14353;46.070;13.222;2023-10-09T04:03:47;4.72;;;3.15;;
23376;SDS011;14353;46.070;13.222;2023-10-09T04:06:13;3.85;;;3.40;;
23376;SDS011;14353;46.070;13.222;2023-10-09T04:08:42;4.32;;;3.00;;
23376;SDS011;14353;46.070;13.222;2023-10-09T04:11:14;3.65;;;3.25;;
23376;SDS011;14353;46.070;13.222;2023-10-09T04:13:47;3.35;;;3.05;;
23376;SDS011;14353;46.070;13.222;2023-10-09T04:16:15;3.60;;;3.30;;
23376;SDS011;14353;46.070;13.222;2023-10-09T04:19:03;4.43;;;3.30;;
23376;SDS011;14353;46.070;13.222;2023-10-09T04:21:36;4.95;;;3.55;;
23376;SDS011;14353;46.070;13.222;2023-10-09T04:24:03;4.30;;;3.30;;
23376;SDS011;14353;46.070;13.222;2023-10-09T04:26:39;4.47;;;3.40;;
23376;SDS011;14353;46.070;13.222;2023-10-09T04:29:09;4.00;;;3.40;;
23376;SDS011;14353;46.070;13.222;2023-10-09T04:31:44;3.80;;;3.35;;
23376;SDS011;14353;46.070;13.222;2023-10-09T04:34:16;4.57;;;3.45;;
23376;SDS011;14353;46.070;13.222;2023-10-09T04:36:49;4.00;;;3.27;;
23376;SDS011;14353;46.070;13.222;2023-10-09T04:39:19;3.63;;;3.20;;
23376;SDS011;14353;46.070;13.222;2023-10-09T04:41:56;3.47;;;3.17;;
23376;SDS011;14353;46.070;13.222;2023-10-09T04:44:41;3.20;;;2.90;;
23376;SDS011;14353;46.070;13.222;2023-10-09T04:47:29;3.38;;;2.95;;
23376;SDS011;14353;46.070;13.222;2023-10-09T04:50:05;3.42;;;3.13;;
23376;SDS011;14353;46.070;13.222;2023-10-09T04:52:31;4.95;;;3.20;;
23376;SDS011;14353;46.070;13.222;2023-10-09T04:54:58;5.63;;;3.55;;
23376;SDS011;14353;46.070;13.222;2023-10-09T04:57:33;4.43;;;3.33;;
23376;SDS011;14353;46.070;13.222;2023-10-09T05:00:12;5.15;;;3.50;;
23376;SDS011;14353;46.070;13.222;2023-10-09T05:02:51;3.30;;;3.00;;
23376;SDS011;14353;46.070;13.222;2023-10-09T05:05:22;3.38;;;2.90;;
23376;SDS011;14353;46.070;13.222;2023-10-09T05:11:02;3.10;;;2.72;;
23376;SDS011;14353;46.070;13.222;2023-10-09T05:13:35;3.45;;;2.90;;
23376;SDS011;14353;46.070;13.222;2023-10-09T05:16:21;3.40;;;3.10;;
23376;SDS011;14353;46.070;13.222;2023-10-09T05:18:47;3.58;;;3.13;;
23376;SDS011;14353;46.070;13.222;2023-10-09T05:21:35;3.42;;;2.90;;
23376;SDS011;14353;46.070;13.222;2023-10-09T05:24:09;3.40;;;3.00;;
23376;SDS011;14353;46.070;13.222;2023-10-09T05:26:39;3.22;;;2.92;;
23376;SDS011;14353;46.070;13.222;2023-10-09T05:29:12;3.67;;;2.97;;
23376;SDS011;14353;46.070;13.222;2023-10-09T05:31:50;5.32;;;3.20;;
23376;SDS011;14353;46.070;13.222;2023-10-09T05:34:35;3.25;;;2.95;;
23376;SDS011;14353;46.070;13.222;2023-10-09T05:37:19;3.08;;;2.78;;
23376;SDS011;14353;46.070;13.222;2023-10-09T05:39:54;3.17;;;2.85;;
23376;SDS011;14353;46.070;13.222;2023-10-09T05:45:17;3.53;;;2.88;;
23376;SDS011;14353;46.070;13.222;2023-10-09T05:47:52;3.75;;;2.90;;
23376;SDS011;14353;46.070;13.222;2023-10-09T05:50:23;4.25;;;3.00;;
23376;SDS011;14353;46.070;13.222;2023-10-09T05:52:50;5.13;;;3.28;;
23376;SDS011;14353;46.070;13.222;2023-10-09T05:55:17;3.63;;;2.75;;
23376;SDS011;14353;46.070;13.222;2023-10-09T05:57:55;3.50;;;2.95;;
23376;SDS011;14353;46.070;13.222;2023-10-09T06:00:40;8.60;;;3.50;;
23376;SDS011;14353;46.070;13.222;2023-10-09T06:03:24;15.40;;;3.65;;
23376;SDS011;14353;46.070;13.222;2023-10-09T06:06:13;18.33;;;3.85;;
23376;SDS011;14353;46.070;13.222;2023-10-09T06:08:58;16.67;;;4.18;;
23376;SDS011;14353;46.070;13.222;2023-10-09T06:11:46;14.73;;;4.40;;
23376;SDS011;14353;46.070;13.222;2023-10-09T06:14:21;21.95;;;5.28;;
23376;SDS011;14353;46.070;13.222;2023-10-09T06:16:55;19.17;;;4.72;;
23376;SDS011;14353;46.070;13.222;2023-10-09T06:19:23;11.75;;;4.45;;
23376;SDS011;14353;46.070;13.222;2023-10-09T06:22:08;19.42;;;4.55;;
23376;SDS011;14353;46.070;13.222;2023-10-09T06:24:38;13.43;;;4.53;;
23376;SDS011;14353;46.070;13.222;2023-10-09T06:27:08;15.23;;;4.40;;
23376;SDS011;14353;46.070;13.222;2023-10-09T06:29:40;14.32;;;4.30;;
23376;SDS011;14353;46.070;13.222;2023-10-09T06:32:11;9.20;;;4.22;;
23376;SDS011;14353;46.070;13.222;2023-10-09T06:34:59;11.13;;;4.15;;
23376;SDS011;14353;46.070;13.222;2023-10-09T06:37:47;17.52;;;4.72;;
23376;SDS011;14353;46.070;13.222;2023-10-09T06:40:29;9.55;;;3.65;;
23376;SDS011;14353;46.070;13.222;2023-10-09T06:43:05;12.98;;;3.85;;
23376;SDS011;14353;46.070;13.222;2023-10-09T06:45:55;18.45;;;4.07;;
23376;SDS011;14353;46.070;13.222;2023-10-09T06:48:44;18.67;;;4.13;;
23376;SDS011;14353;46.070;13.222;2023-10-09T06:51:11;25.23;;;4.18;;
23376;SDS011;14353;46.070;13.222;2023-10-09T06:53:43;16.00;;;4.07;;
23376;SDS011;14353;46.070;13.222;2023-10-09T06:56:19;14.85;;;3.60;;
23376;SDS011;14353;46.070;13.222;2023-10-09T06:58:54;13.32;;;3.20;;
23376;SDS011;14353;46.070;13.222;2023-10-09T07:01:24;11.75;;;3.20;;
23376;SDS011;14353;46.070;13.222;2023-10-09T07:04:07;14.15;;;3.47;;
23376;SDS011;14353;46.070;13.222;2023-10-09T07:06:52;16.00;;;3.67;;
23376;SDS011;14353;46.070;13.222;2023-10-09T07:09:18;12.73;;;3.65;;
23376;SDS011;14353;46.070;13.222;2023-10-09T07:11:50;11.88;;;3.72;;
23376;SDS011;14353;46.070;13.222;2023-10-09T07:14:20;10.32;;;3.63;;
23376;SDS011;14353;46.070;13.222;2023-10-09T07:19:26;14.15;;;4.90;;
23376;SDS011;14353;46.070;13.222;2023-10-09T07:22:10;13.73;;;3.75;;
23376;SDS011;14353;46.070;13.222;2023-10-09T07:24:46;16.38;;;3.90;;
23376;SDS011;14353;46.070;13.222;2023-10-09T07:27:25;12.13;;;4.07;;
23376;SDS011;14353;46.070;13.222;2023-10-09T07:30:22;14.48;;;4.00;;
23376;SDS011;14353;46.070;13.222;2023-10-09T07:33:03;14.27;;;4.03;;
23376;SDS011;14353;46.070;13.222;2023-10-09T07:35:33;14.55;;;3.72;;
23376;SDS011;14353;46.070;13.222;2023-10-09T07:38:12;9.25;;;3.45;;
23376;SDS011;14353;46.070;13.222;2023-10-09T07:40:49;11.73;;;3.67;;
23376;SDS011;14353;46.070;13.222;2023-10-09T07:43:32;7.93;;;3.30;;
23376;SDS011;14353;46.070;13.222;2023-10-09T07:46:14;9.55;;;3.88;;
23376;SDS011;14353;46.070;13.222;2023-10-09T07:49:01;12.95;;;3.90;;
23376;SDS011;14353;46.070;13.222;2023-10-09T07:51:37;11.82;;;3.50;;
23376;SDS011;14353;46.070;13.222;2023-10-09T07:54:04;9.65;;;4.10;;
23376;SDS011;14353;46.070;13.222;2023-10-09T07:56:32;9.18;;;3.45;;
23376;SDS011;14353;46.070;13.222;2023-10-09T07:59:11;10.18;;;4.38;;
23376;SDS011;14353;46.070;13.222;2023-10-09T08:01:50;14.55;;;4.07;;
23376;SDS011;14353;46.070;13.222;2023-10-09T08:04:28;12.27;;;4.10;;
23376;SDS011;14353;46.070;13.222;2023-10-09T08:07:13;16.90;;;4.03;;
23376;SDS011;14353;46.070;13.222;2023-10-09T08:10:07;13.63;;;4.13;;
23376;SDS011;14353;46.070;13.222;2023-10-09T08:12:39;19.98;;;4.55;;
23376;SDS011;14353;46.070;13.222;2023-10-09T08:15:14;16.60;;;4.35;;
23376;SDS011;14353;46.070;13.222;2023-10-09T08:17:54;14.73;;;4.43;;
23376;SDS011;14353;46.070;13.222;2023-10-09T08:20:35;15.77;;;4.40;;
23376;SDS011;14353;46.070;13.222;2023-10-09T08:23:36;18.50;;;4.25;;
23376;SDS011;14353;46.070;13.222;2023-10-09T08:26:14;21.92;;;4.60;;
23376;SDS011;14353;46.070;13.222;2023-10-09T08:28:53;13.90;;;5.10;;
23376;SDS011;14353;46.070;13.222;2023-10-09T08:31:39;12.45;;;4.90;;
23376;SDS011;14353;46.070;13.222;2023-10-09T08:34:12;12.20;;;4.55;;
23376;SDS011;14353;46.070;13.222;2023-10-09T08:36:49;10.27;;;4.25;;
23376;SDS011;14353;46.070;13.222;2023-10-09T08:39:21;10.38;;;4.18;;
23376;SDS011;14353;46.070;13.222;2023-10-09T08:41:53;13.00;;;4.60;;
23376;SDS011;14353;46.070;13.222;2023-10-09T08:44:23;9.43;;;3.67;;
23376;SDS011;14353;46.070;13.222;2023-10-09T08:46:54;9.15;;;4.03;;
23376;SDS011;14353;46.070;13.222;2023-10-09T08:49:20;11.75;;;3.97;;
23376;SDS011;14353;46.070;13.222;2023-10-09T08:51:46;10.55;;;3.75;;
23376;SDS011;14353;46.070;13.222;2023-10-09T08:54:13;10.77;;;3.60;;
23376;SDS011;14353;46.070;13.222;2023-10-09T08:56:40;12.80;;;3.90;;
23376;SDS011;14353;46.070;13.222;2023-10-09T08:59:16;12.63;;;3.60;;
23376;SDS011;14353;46.070;13.222;2023-10-09T09:01:46;14.88;;;4.00;;
23376;SDS011;14353;46.070;13.222;2023-10-09T09:07:05;11.95;;;3.85;;
23376;SDS011;14353;46.070;13.222;2023-10-09T09:09:32;18.80;;;4.78;;
23376;SDS011;14353;46.070;13.222;2023-10-09T09:11:59;19.05;;;4.43;;
23376;SDS011;14353;46.070;13.222;2023-10-09T09:14:35;19.95;;;4.30;;
23376;SDS011;14353;46.070;13.222;2023-10-09T09:17:02;25.00;;;4.78;;
23376;SDS011;14353;46.070;13.222;2023-10-09T09:19:32;17.33;;;4.28;;
23376;SDS011;14353;46.070;13.222;2023-10-09T09:24:38;11.60;;;3.42;;
23376;SDS011;14353;46.070;13.222;2023-10-09T09:27:04;20.23;;;4.47;;
23376;SDS011;14353;46.070;13.222;2023-10-09T09:29:43;20.20;;;4.18;;
23376;SDS011;14353;46.070;13.222;2023-10-09T09:32:28;18.98;;;3.85;;
23376;SDS011;14353;46.070;13.222;2023-10-09T09:35:00;11.68;;;3.28;;
23376;SDS011;14353;46.070;13.222;2023-10-09T09:37:29;17.55;;;3.40;;
23376;SDS011;14353;46.070;13.222;2023-10-09T09:40:04;14.82;;;3.50;;
23376;SDS011;14353;46.070;13.222;2023-10-09T09:42:42;13.07;;;3.05;;
23376;SDS011;14353;46.070;13.222;2023-10-09T09:45:13;9.05;;;2.63;;
23376;SDS011;14353;46.070;13.222;2023-10-09T09:47:40;9.05;;;2.88;;
23376;SDS011;14353;46.070;13.222;2023-10-09T09:50:16;16.45;;;2.80;;
23376;SDS011;14353;46.070;13.222;2023-10-09T09:52:53;8.32;;;3.08;;
23376;SDS011;14353;46.070;13.222;2023-10-09T09:55:21;10.65;;;2.88;;
23376;SDS011;14353;46.070;13.222;2023-10-09T09:57:56;8.82;;;3.20;;
23376;SDS011;14353;46.070;13.222;2023-10-09T10:00:26;12.15;;;3.35;;
23376;SDS011;14353;46.070;13.222;2023-10-09T10:03:18;11.00;;;3.20;;
23376;SDS011;14353;46.070;13.222;2023-10-09T10:06:02;5.95;;;3.20;;
23376;SDS011;14353;46.070;13.222;2023-10-09T10:08:35;14.18;;;3.80;;
23376;SDS011;14353;46.070;13.222;2023-10-09T10:11:04;13.25;;;3.83;;
23376;SDS011;14353;46.070;13.222;2023-10-09T10:13:54;11.13;;;3.65;;
23376;SDS011;14353;46.070;13.222;2023-10-09T10:16:24;10.98;;;4.10;;
23376;SDS011;14353;46.070;13.222;2023-10-09T10:19:00;8.23;;;3.70;;
23376;SDS011;14353;46.070;13.222;2023-10-09T10:21:46;13.15;;;3.83;;
23376;SDS011;14353;46.070;13.222;2023-10-09T10:27:16;13.00;;;4.30;;
23376;SDS011;14353;46.070;13.222;2023-10-09T10:35:16;10.10;;;3.75;;
23376;SDS011;14353;46.070;13.222;2023-10-09T10:37:57;11.57;;;4.93;;
23376;SDS011;14353;46.070;13.222;2023-10-09T10:40:32;11.15;;;4.10;;
23376;SDS011;14353;46.070;13.222;2023-10-09T10:43:17;17.13;;;4.60;;
23376;SDS011;14353;46.070;13.222;2023-10-09T10:46:05;16.35;;;5.07;;
23376;SDS011;14353;46.070;13.222;2023-10-09T10:48:54;11.20;;;5.03;;
23376;SDS011;14353;46.070;13.222;2023-10-09T10:51:43;12.27;;;4.88;;
23376;SDS011;14353;46.070;13.222;2023-10-09T10:54:23;13.18;;;4.72;;
23376;SDS011;14353;46.070;13.222;2023-10-09T10:56:59;15.63;;;5.22;;
23376;SDS011;14353;46.070;13.222;2023-10-09T10:59:29;10.48;;;4.68;;
23376;SDS011;14353;46.070;13.222;2023-10-09T11:02:02;13.35;;;6.93;;
23376;SDS011;14353;46.070;13.222;2023-10-09T11:04:35;17.13;;;7.90;;
23376;SDS011;14353;46.070;13.222;2023-10-09T11:07:01;13.85;;;6.00;;
23376;SDS011;14353;46.070;13.222;2023-10-09T11:09:47;15.35;;;6.53;;
23376;SDS011;14353;46.070;13.222;2023-10-09T11:12:29;19.50;;;7.90;;
23376;SDS011;14353;46.070;13.222;2023-10-09T11:15:10;15.68;;;7.30;;
23376;SDS011;14353;46.070;13.222;2023-10-09T11:18:07;19.05;;;10.52;;
23376;SDS011;14353;46.070;13.222;2023-10-09T11:20:41;17.60;;;7.07;;
23376;SDS011;14353;46.070;13.222;2023-10-09T11:23:19;15.20;;;7.10;;
23376;SDS011;14353;46.070;13.222;2023-10-09T11:25:55;10.82;;;6.45;;
23376;SDS011;14353;46.070;13.222;2023-10-09T11:28:42;13.10;;;7.25;;
23376;SDS011;14353;46.070;13.222;2023-10-09T11:31:14;14.70;;;8.75;;
23376;SDS011;14353;46.070;13.222;2023-10-09T11:33:46;17.00;;;8.95;;
23376;SDS011;14353;46.070;13.222;2023-10-09T11:36:19;20.10;;;12.77;;
23376;SDS011;14353;46.070;13.222;2023-10-09T11:39:03;19.65;;;11.15;;
23376;SDS011;14353;46.070;13.222;2023-10-09T11:41:47;13.73;;;8.13;;
23376;SDS011;14353;46.070;13.222;2023-10-09T11:44:14;18.23;;;10.07;;
23376;SDS011;14353;46.070;13.222;2023-10-09T11:46:59;17.17;;;10.60;;
23376;SDS011;14353;46.070;13.222;2023-10-09T11:49:53;17.52;;;10.18;;
23376;SDS011;14353;46.070;13.222;2023-10-09T11:52:43;22.08;;;13.18;;
23376;SDS011;14353;46.070;13.222;2023-10-09T11:55:39;23.58;;;14.05;;
23376;SDS011;14353;46.070;13.222;2023-10-09T11:58:05;18.52;;;11.60;;
23376;SDS011;14353;46.070;13.222;2023-10-09T12:00:32;16.50;;;10.77;;
23376;SDS011;14353;46.070;13.222;2023-10-09T12:03:09;26.35;;;11.80;;
23376;SDS011;14353;46.070;13.222;2023-10-09T12:05:35;20.42;;;15.70;;
23376;SDS011;14353;46.070;13.222;2023-10-09T12:08:03;18.15;;;12.25;;
23376;SDS011;14353;46.070;13.222;2023-10-09T12:10:33;17.25;;;11.25;;
23376;SDS011;14353;46.070;13.222;2023-10-09T12:13:03;29.05;;;14.80;;
23376;SDS011;14353;46.070;13.222;2023-10-09T12:15:31;15.25;;;10.32;;
23376;SDS011;14353;46.070;13.222;2023-10-09T12:18:04;16.55;;;10.55;;
23376;SDS011;14353;46.070;13.222;2023-10-09T12:20:34;18.38;;;11.48;;
23376;SDS011;14353;46.070;13.222;2023-10-09T12:23:01;15.73;;;11.18;;
23376;SDS011;14353;46.070;13.222;2023-10-09T12:25:30;15.43;;;10.20;;
23376;SDS011;14353;46.070;13.222;2023-10-09T12:27:59;16.55;;;9.60;;
23376;SDS011;14353;46.070;13.222;2023-10-09T12:30:28;23.52;;;14.30;;
23376;SDS011;14353;46.070;13.222;2023-10-09T12:32:54;22.17;;;13.07;;
23376;SDS011;14353;46.070;13.222;2023-10-09T12:35:22;19.65;;;13.00;;
23376;SDS011;14353;46.070;13.222;2023-10-09T12:37:52;13.18;;;8.35;;
23376;SDS011;14353;46.070;13.222;2023-10-09T12:40:21;13.43;;;8.63;;
23376;SDS011;14353;46.070;13.222;2023-10-09T12:42:54;17.40;;;10.93;;
23376;SDS011;14353;46.070;13.222;2023-10-09T12:45:23;16.40;;;11.77;;
23376;SDS011;14353;46.070;13.222;2023-10-09T12:47:57;20.10;;;12.68;;
23376;SDS011;14353;46.070;13.222;2023-10-09T12:50:24;23.33;;;13.48;;
23376;SDS011;14353;46.070;13.222;2023-10-09T12:52:56;15.82;;;11.68;;
23376;SDS011;14353;46.070;13.222;2023-10-09T12:55:34;14.48;;;10.88;;
23376;SDS011;14353;46.070;13.222;2023-10-09T12:58:07;18.00;;;11.88;;
23376;SDS011;14353;46.070;13.222;2023-10-09T13:00:37;10.90;;;8.50;;
23376;SDS011;14353;46.070;13.222;2023-10-09T13:03:09;18.25;;;14.70;;
23376;SDS011;14353;46.070;13.222;2023-10-09T13:05:44;24.40;;;14.27;;
23376;SDS011;14353;46.070;13.222;2023-10-09T13:08:18;16.23;;;10.82;;
23376;SDS011;14353;46.070;13.222;2023-10-09T13:10:56;17.20;;;13.38;;
23376;SDS011;14353;46.070;13.222;2023-10-09T13:13:28;21.67;;;13.77;;
23376;SDS011;14353;46.070;13.222;2023-10-09T13:16:12;18.65;;;11.80;;
23376;SDS011;14353;46.070;13.222;2023-10-09T13:18:57;16.90;;;13.05;;
23376;SDS011;14353;46.070;13.222;2023-10-09T13:21:28;21.83;;;15.85;;
23376;SDS011;14353;46.070;13.222;2023-10-09T13:23:57;15.13;;;11.67;;
23376;SDS011;14353;46.070;13.222;2023-10-09T13:26:25;28.63;;;16.40;;
23376;SDS011;14353;46.070;13.222;2023-10-09T13:28:55;23.50;;;16.33;;
23376;SDS011;14353;46.070;13.222;2023-10-09T13:31:22;22.50;;;15.00;;
23376;SDS011;14353;46.070;13.222;2023-10-09T13:33:53;27.15;;;17.20;;
23376;SDS011;14353;46.070;13.222;2023-10-09T13:36:20;23.00;;;18.55;;
23376;SDS011;14353;46.070;13.222;2023-10-09T13:38:54;23.75;;;17.17;;
23376;SDS011;14353;46.070;13.222;2023-10-09T13:41:20;15.30;;;11.77;;
23376;SDS011;14353;46.070;13.222;2023-10-09T13:43:47;15.95;;;11.07;;
23376;SDS011;14353;46.070;13.222;2023-10-09T13:46:16;22.02;;;13.55;;
23376;SDS011;14353;46.070;13.222;2023-10-09T13:48:43;26.33;;;16.25;;
23376;SDS011;14353;46.070;13.222;2023-10-09T13:51:10;20.38;;;14.73;;
23376;SDS011;14353;46.070;13.222;2023-10-09T13:53:45;21.98;;;14.05;;
23376;SDS011;14353;46.070;13.222;2023-10-09T13:58:49;23.33;;;17.87;;
23376;SDS011;14353;46.070;13.222;2023-10-09T14:01:19;29.27;;;18.02;;
23376;SDS011;14353;46.070;13.222;2023-10-09T14:03:54;33.20;;;23.40;;
23376;SDS011;14353;46.070;13.222;2023-10-09T14:06:24;22.13;;;15.75;;
23376;SDS011;14353;46.070;13.222;2023-10-09T14:08:57;21.95;;;16.33;;
23376;SDS011;14353;46.070;13.222;2023-10-09T14:11:33;15.30;;;12.55;;
23376;SDS011;14353;46.070;13.222;2023-10-09T14:14:03;18.38;;;14.18;;
23376;SDS011;14353;46.070;13.222;2023-10-09T14:16:34;20.17;;;16.80;;
23376;SDS011;14353;46.070;13.222;2023-10-09T14:19:01;17.98;;;12.98;;
23376;SDS011;14353;46.070;13.222;2023-10-09T14:21:32;17.08;;;13.00;;
23376;SDS011;14353;46.070;13.222;2023-10-09T14:24:08;20.27;;;14.50;;
23376;SDS011;14353;46.070;13.222;2023-10-09T14:26:43;17.65;;;13.75;;
23376;SDS011;14353;46.070;13.222;2023-10-09T14:29:10;17.45;;;13.45;;
23376;SDS011;14353;46.070;13.222;2023-10-09T14:31:41;21.42;;;16.00;;
23376;SDS011;14353;46.070;13.222;2023-10-09T14:34:24;27.65;;;20.08;;
23376;SDS011;14353;46.070;13.222;2023-10-09T14:37:00;24.55;;;17.83;;
23376;SDS011;14353;46.070;13.222;2023-10-09T14:39:27;17.63;;;12.95;;
23376;SDS011;14353;46.070;13.222;2023-10-09T14:41:53;16.00;;;12.65;;
23376;SDS011;14353;46.070;13.222;2023-10-09T14:44:31;17.70;;;12.55;;
23376;SDS011;14353;46.070;13.222;2023-10-09T14:47:01;17.77;;;13.82;;
23376;SDS011;14353;46.070;13.222;2023-10-09T14:49:30;19.27;;;15.20;;
23376;SDS011;14353;46.070;13.222;2023-10-09T14:52:02;17.90;;;15.40;;
23376;SDS011;14353;46.070;13.222;2023-10-09T14:54:28;21.60;;;15.10;;
23376;SDS011;14353;46.070;13.222;2023-10-09T14:56:54;25.27;;;19.00;;
23376;SDS011;14353;46.070;13.222;2023-10-09T14:59:20;19.75;;;13.85;;
23376;SDS011;14353;46.070;13.222;2023-10-09T15:01:47;13.60;;;11.95;;
23376;SDS011;14353;46.070;13.222;2023-10-09T15:04:18;20.55;;;14.32;;
23376;SDS011;14353;46.070;13.222;2023-10-09T15:06:44;21.27;;;15.10;;
23376;SDS011;14353;46.070;13.222;2023-10-09T15:09:14;20.83;;;14.13;;
23376;SDS011;14353;46.070;13.222;2023-10-09T15:11:53;21.55;;;15.70;;
23376;SDS011;14353;46.070;13.222;2023-10-09T15:14:19;18.83;;;14.70;;
23376;SDS011;14353;46.070;13.222;2023-10-09T15:16:46;21.23;;;15.60;;
23376;SDS011;14353;46.070;13.222;2023-10-09T15:19:13;23.42;;;15.98;;
23376;SDS011;14353;46.070;13.222;2023-10-09T15:21:41;23.77;;;15.88;;
23376;SDS011;14353;46.070;13.222;2023-10-09T15:24:11;28.67;;;18.77;;
23376;SDS011;14353;46.070;13.222;2023-10-09T15:26:46;18.63;;;14.40;;
23376;SDS011;14353;46.070;13.222;2023-10-09T15:29:21;22.92;;;17.25;;
23376;SDS011;14353;46.070;13.222;2023-10-09T15:31:59;20.80;;;16.10;;
23376;SDS011;14353;46.070;13.222;2023-10-09T15:34:32;18.90;;;15.20;;
23376;SDS011;14353;46.070;13.222;2023-10-09T15:37:01;21.10;;;14.55;;
23376;SDS011;14353;46.070;13.222;2023-10-09T15:39:32;24.20;;;15.70;;